createdAt,value
2019-02-24T00:01:55.292Z,18.40
2019-02-24T00:05:00.372Z,18.40
2019-02-24T00:08:04.948Z,18.40
2019-02-24T00:11:10.463Z,18.40
2019-02-24T00:14:14.850Z,18.40
2019-02-24T00:17:19.262Z,18.30
2019-02-24T00:20:23.616Z,18.30
2019-02-24T00:23:28.094Z,18.30
2019-02-24T00:26:33.343Z,18.30
2019-02-24T00:29:37.658Z,18.30
2019-02-24T00:32:42.747Z,18.30
2019-02-24T00:35:47.330Z,18.30
2019-02-24T00:38:51.668Z,18.20
2019-02-24T00:41:55.959Z,18.20
2019-02-24T00:45:00.913Z,18.20
2019-02-24T00:48:05.245Z,18.20
2019-02-24T00:51:12.616Z,18.20
2019-02-24T00:54:16.950Z,18.20
2019-02-24T00:57:21.246Z,18.10
2019-02-24T01:00:25.653Z,18.10
2019-02-24T01:03:30.030Z,18.10
2019-02-24T01:06:34.348Z,18.10
2019-02-24T01:09:38.947Z,18.10
2019-02-24T01:12:43.293Z,18.00
2019-02-24T01:15:48.718Z,18.00
2019-02-24T01:18:53.104Z,18.00
2019-02-24T01:21:57.461Z,18.00
2019-02-24T01:25:01.965Z,18.00
2019-02-24T01:28:06.373Z,18.00
2019-02-24T01:31:10.693Z,18.00
2019-02-24T01:34:15.357Z,18.00
2019-02-24T01:37:19.819Z,17.90
2019-02-24T01:40:24.138Z,17.90
2019-02-24T01:43:28.576Z,17.80
2019-02-24T01:46:32.880Z,17.90
2019-02-24T01:49:37.253Z,17.80
2019-02-24T01:52:41.557Z,17.80
2019-02-24T01:55:45.875Z,17.80
2019-02-24T01:58:50.210Z,17.80
2019-02-24T02:01:54.516Z,17.80
2019-02-24T02:04:59.168Z,17.80
2019-02-24T02:08:03.490Z,17.70
2019-02-24T02:11:07.888Z,17.70
2019-02-24T02:14:12.261Z,17.70
2019-02-24T02:17:17.687Z,17.70
2019-02-24T02:20:22.139Z,17.70
2019-02-24T02:23:26.485Z,17.70
2019-02-24T02:26:30.814Z,17.70
2019-02-24T02:29:35.445Z,17.60
2019-02-24T02:32:40.089Z,17.60
2019-02-24T02:35:44.451Z,17.60
2019-02-24T02:38:49.115Z,17.60
2019-02-24T02:41:53.484Z,17.60
2019-02-24T02:44:57.818Z,17.50
2019-02-24T02:48:02.605Z,17.50
2019-02-24T02:51:06.882Z,17.50
2019-02-24T02:54:11.200Z,17.50
2019-02-24T02:57:15.508Z,17.50
2019-02-24T03:00:38.250Z,17.40
2019-02-24T03:03:42.687Z,17.40
2019-02-24T03:07:06.264Z,17.40
2019-02-24T03:10:10.959Z,17.40
2019-02-24T03:13:15.271Z,17.40
2019-02-24T03:16:23.864Z,17.40
2019-02-24T03:19:28.163Z,17.40
2019-02-24T03:22:32.496Z,17.40
2019-02-24T03:25:37.194Z,17.40
2019-02-24T03:28:42.012Z,17.40
2019-02-24T03:31:46.334Z,17.40
2019-02-24T03:34:50.632Z,17.40
2019-02-24T03:37:56.440Z,17.40
2019-02-24T03:41:00.741Z,17.40
2019-02-24T03:44:05.396Z,17.30
2019-02-24T03:47:09.991Z,17.40
2019-02-24T03:50:14.322Z,17.30
2019-02-24T03:53:18.745Z,17.30
2019-02-24T03:56:25.319Z,17.30
2019-02-24T03:59:29.611Z,17.30
2019-02-24T04:02:33.930Z,17.30
2019-02-24T04:05:38.352Z,17.20
2019-02-24T04:08:44.114Z,17.30
2019-02-24T04:11:48.425Z,17.20
2019-02-24T04:14:52.809Z,17.20
2019-02-24T04:17:57.166Z,17.20
2019-02-24T04:21:01.515Z,17.20
2019-02-24T04:24:05.854Z,17.20
2019-02-24T04:27:11.715Z,17.10
2019-02-24T04:30:16.186Z,17.20
2019-02-24T04:33:20.566Z,17.10
2019-02-24T04:36:24.835Z,17.20
2019-02-24T04:39:29.166Z,17.10
2019-02-24T04:42:33.530Z,17.10
2019-02-24T04:45:37.819Z,17.10
2019-02-24T04:48:42.112Z,17.00
2019-02-24T04:51:46.440Z,17.10
2019-02-24T04:54:50.798Z,17.10
2019-02-24T04:57:55.532Z,17.10
2019-02-24T05:00:59.891Z,17.00
2019-02-24T05:04:04.592Z,17.00
2019-02-24T05:07:09.228Z,17.00
2019-02-24T05:10:14.606Z,16.90
2019-02-24T05:13:18.894Z,16.90
2019-02-24T05:16:23.191Z,16.90
2019-02-24T05:19:27.799Z,16.90
2019-02-24T05:22:32.108Z,16.90
2019-02-24T05:25:36.728Z,16.80
2019-02-24T05:28:41.052Z,16.80
2019-02-24T05:31:45.454Z,16.80
2019-02-24T05:34:50.133Z,16.80
2019-02-24T05:37:54.506Z,16.80
2019-02-24T05:40:58.868Z,16.80
2019-02-24T05:44:03.166Z,16.80
2019-02-24T05:47:07.433Z,16.80
2019-02-24T05:50:11.748Z,16.80
2019-02-24T05:53:16.126Z,16.80
2019-02-24T05:56:20.549Z,16.80
2019-02-24T05:59:25.300Z,16.80
2019-02-24T06:02:29.961Z,16.70
2019-02-24T06:05:35.129Z,16.70
2019-02-24T06:08:39.893Z,16.70
2019-02-24T06:11:44.197Z,16.70
2019-02-24T06:14:48.517Z,16.70
2019-02-24T06:17:52.847Z,16.60
2019-02-24T06:20:57.152Z,16.60
2019-02-24T06:24:01.564Z,16.60
2019-02-24T06:27:05.880Z,16.60
2019-02-24T06:30:10.617Z,16.60
2019-02-24T06:33:14.963Z,16.50
2019-02-24T06:36:19.761Z,16.60
2019-02-24T06:39:24.137Z,16.60
2019-02-24T06:42:29.575Z,16.60
2019-02-24T06:45:33.948Z,16.60
2019-02-24T06:48:38.266Z,16.60
2019-02-24T06:51:42.623Z,16.60
2019-02-24T06:54:46.911Z,16.60
2019-02-24T06:57:51.277Z,16.60
2019-02-24T07:00:55.554Z,16.60
2019-02-24T07:04:00.116Z,16.60
2019-02-24T07:07:04.420Z,16.60
2019-02-24T07:10:09.264Z,16.60
2019-02-24T07:13:13.667Z,16.60
2019-02-24T07:16:19.829Z,16.60
2019-02-24T07:19:24.223Z,16.50
2019-02-24T07:22:28.917Z,16.60
2019-02-24T07:25:33.218Z,16.50
2019-02-24T07:28:37.576Z,16.50
2019-02-24T07:31:41.895Z,16.50
2019-02-24T07:34:47.430Z,16.60
2019-02-24T07:37:56.394Z,16.90
2019-02-24T07:41:00.759Z,17.00
2019-02-24T07:44:05.087Z,17.30
2019-02-24T07:47:09.410Z,17.50
2019-02-24T07:50:13.715Z,17.70
2019-02-24T07:53:18.111Z,17.90
2019-02-24T07:56:22.419Z,18.10
2019-02-24T07:59:26.739Z,18.30
2019-02-24T08:02:31.432Z,18.50
2019-02-24T08:05:35.927Z,18.70
2019-02-24T08:08:41.136Z,18.90
2019-02-24T08:11:45.866Z,19.00
2019-02-24T08:14:50.628Z,19.20
2019-02-24T08:17:56.157Z,19.30
2019-02-24T08:21:00.968Z,19.40
2019-02-24T08:24:05.503Z,19.50
2019-02-24T08:27:09.821Z,19.60
2019-02-24T08:30:14.214Z,19.70
2019-02-24T08:33:19.993Z,19.80
2019-02-24T08:36:24.286Z,19.90
2019-02-24T08:39:29.250Z,20.00
2019-02-24T08:42:33.996Z,20.10
2019-02-24T08:45:38.347Z,20.10
2019-02-24T08:48:42.667Z,20.20
2019-02-24T08:51:47.133Z,20.30
2019-02-24T08:54:51.450Z,20.40
2019-02-24T08:57:55.777Z,20.50
2019-02-24T09:01:00.079Z,20.50
2019-02-24T09:04:04.402Z,20.60
2019-02-24T09:07:08.728Z,20.70
2019-02-24T09:10:13.365Z,20.70
2019-02-24T09:13:19.280Z,20.70
2019-02-24T09:16:23.582Z,20.20
2019-02-24T09:19:27.929Z,19.90
2019-02-24T09:22:35.018Z,20.00
2019-02-24T09:25:42.850Z,20.00
2019-02-24T09:28:51.528Z,20.00
2019-02-24T09:31:57.637Z,20.00
2019-02-24T09:35:02.621Z,20.00
2019-02-24T09:38:06.932Z,20.00
2019-02-24T09:41:12.421Z,19.90
2019-02-24T09:44:17.120Z,20.00
2019-02-24T09:47:21.425Z,20.00
2019-02-24T09:50:26.421Z,20.00
2019-02-24T09:53:33.134Z,20.00
2019-02-24T09:56:40.920Z,20.00
2019-02-24T09:59:45.639Z,20.00
2019-02-24T10:02:49.960Z,20.00
2019-02-24T10:05:56.804Z,20.00
2019-02-24T10:09:01.998Z,20.10
2019-02-24T10:12:06.294Z,20.10
2019-02-24T10:15:11.416Z,20.20
2019-02-24T10:18:15.742Z,20.30
2019-02-24T10:21:20.456Z,20.30
2019-02-24T10:24:25.898Z,20.30
2019-02-24T10:27:31.936Z,20.30
2019-02-24T10:30:36.727Z,20.40
2019-02-24T10:33:41.429Z,20.30
2019-02-24T10:36:46.305Z,20.40
2019-02-24T10:39:51.010Z,20.80
2019-02-24T10:42:55.434Z,21.00
2019-02-24T10:46:02.982Z,21.20
2019-02-24T10:49:09.533Z,21.30
2019-02-24T10:52:25.396Z,21.40
2019-02-24T10:55:30.055Z,21.50
2019-02-24T10:58:35.075Z,21.70
2019-02-24T11:01:39.882Z,21.80
2019-02-24T11:04:44.971Z,21.90
2019-02-24T11:07:49.412Z,21.90
2019-02-24T11:10:53.690Z,22.00
2019-02-24T11:13:58.355Z,22.20
2019-02-24T11:17:04.103Z,22.30
2019-02-24T11:20:09.868Z,22.40
2019-02-24T11:23:15.707Z,22.50
2019-02-24T11:26:20.007Z,22.70
2019-02-24T11:29:24.367Z,22.80
2019-02-24T11:32:29.295Z,22.90
2019-02-24T11:35:33.959Z,23.00
2019-02-24T11:38:39.441Z,23.00
2019-02-24T11:41:43.762Z,23.10
2019-02-24T11:44:48.065Z,23.20
2019-02-24T11:47:52.873Z,23.30
2019-02-24T11:50:57.209Z,23.30
2019-02-24T11:54:01.574Z,23.30
2019-02-24T11:57:06.349Z,23.40
2019-02-24T12:00:11.347Z,23.40
2019-02-24T12:03:20.761Z,23.50
2019-02-24T12:06:30.583Z,23.50
2019-02-24T12:09:46.166Z,23.60
2019-02-24T12:12:53.263Z,23.60
2019-02-24T12:15:57.923Z,23.70
2019-02-24T12:19:04.335Z,23.70
2019-02-24T12:22:08.654Z,23.70
2019-02-24T12:25:13.637Z,23.70
2019-02-24T12:28:18.250Z,23.80
2019-02-24T12:31:23.132Z,23.90
2019-02-24T12:34:27.857Z,23.90
2019-02-24T12:37:32.158Z,23.80
2019-02-24T12:40:36.563Z,23.70
2019-02-24T12:43:43.423Z,23.70
2019-02-24T12:46:49.374Z,23.60
2019-02-24T12:50:02.937Z,23.40
2019-02-24T12:53:02.316Z,23.30
2019-02-24T12:56:07.067Z,23.20
2019-02-24T12:59:13.872Z,23.10
2019-02-24T13:02:21.591Z,23.00
2019-02-24T13:05:26.499Z,22.90
2019-02-24T13:08:32.319Z,22.70
2019-02-24T13:11:38.092Z,22.60
2019-02-24T13:14:42.409Z,22.50
2019-02-24T13:17:47.199Z,22.40
2019-02-24T13:20:52.277Z,22.30
2019-02-24T13:23:57.016Z,22.20
2019-02-24T13:27:01.718Z,22.10
2019-02-24T13:30:07.475Z,22.00
2019-02-24T13:33:11.902Z,21.90
2019-02-24T13:36:16.340Z,21.90
2019-02-24T13:39:21.094Z,21.80
2019-02-24T13:42:25.392Z,21.80
2019-02-24T13:45:29.742Z,21.90
2019-02-24T13:48:36.368Z,22.00
2019-02-24T13:51:42.254Z,22.10
2019-02-24T13:54:47.725Z,22.20
2019-02-24T13:57:52.432Z,22.40
2019-02-24T14:00:57.085Z,22.40
2019-02-24T14:04:02.029Z,22.60
2019-02-24T14:07:06.442Z,22.70
2019-02-24T14:10:12.163Z,22.80
2019-02-24T14:13:16.564Z,22.90
2019-02-24T14:16:20.870Z,23.00
2019-02-24T14:19:25.636Z,23.00
2019-02-24T14:22:30.330Z,23.10
2019-02-24T14:25:36.210Z,23.20
2019-02-24T14:28:41.260Z,23.30
2019-02-24T14:31:45.703Z,23.40
2019-02-24T14:34:50.402Z,23.40
2019-02-24T14:37:55.033Z,23.50
2019-02-24T14:40:59.391Z,23.50
2019-02-24T14:44:04.014Z,23.50
2019-02-24T14:47:08.365Z,23.60
2019-02-24T14:50:14.385Z,23.70
2019-02-24T14:53:18.855Z,23.70
2019-02-24T14:56:23.571Z,23.70
2019-02-24T14:59:28.223Z,23.80
2019-02-24T15:02:42.264Z,23.80
2019-02-24T15:05:41.812Z,23.90
2019-02-24T15:08:46.839Z,23.80
2019-02-24T15:11:53.694Z,23.80
2019-02-24T15:14:58.056Z,23.90
2019-02-24T15:18:02.458Z,23.90
2019-02-24T15:21:07.267Z,23.90
2019-02-24T15:24:12.019Z,23.90
2019-02-24T15:27:16.679Z,24.00
2019-02-24T15:30:25.088Z,24.00
2019-02-24T15:33:29.520Z,24.00
2019-02-24T15:36:34.335Z,24.00
2019-02-24T15:39:39.006Z,24.00
2019-02-24T15:42:43.737Z,24.00
2019-02-24T15:45:48.068Z,24.10
2019-02-24T15:48:52.839Z,24.20
2019-02-24T15:51:57.511Z,24.30
2019-02-24T15:55:02.205Z,24.30
2019-02-24T15:58:06.723Z,24.40
2019-02-24T16:01:11.089Z,24.30
2019-02-24T16:04:15.416Z,24.40
2019-02-24T16:07:20.286Z,24.50
2019-02-24T16:10:24.600Z,24.50
2019-02-24T16:13:29.260Z,24.60
2019-02-24T16:16:33.973Z,24.60
2019-02-24T16:19:38.358Z,24.60
2019-02-24T16:22:42.706Z,24.60
2019-02-24T16:25:48.229Z,24.70
2019-02-24T16:28:54.879Z,24.40
2019-02-24T16:31:59.618Z,24.20
2019-02-24T16:35:04.602Z,24.20
2019-02-24T16:38:09.301Z,24.20
2019-02-24T16:41:13.640Z,24.20
2019-02-24T16:44:19.437Z,24.20
2019-02-24T16:47:23.836Z,24.20
2019-02-24T16:50:28.571Z,24.20
2019-02-24T16:53:32.874Z,24.20
2019-02-24T16:56:37.163Z,24.30
2019-02-24T16:59:42.228Z,24.30
2019-02-24T17:02:48.346Z,24.30
2019-02-24T17:05:52.700Z,24.30
2019-02-24T17:09:01.372Z,24.10
2019-02-24T17:12:03.065Z,24.20
2019-02-24T17:15:09.215Z,24.30
2019-02-24T17:18:13.633Z,24.10
2019-02-24T17:21:18.033Z,23.90
2019-02-24T17:24:22.397Z,23.90
2019-02-24T17:27:26.736Z,24.30
2019-02-24T17:30:31.099Z,24.50
2019-02-24T17:33:35.518Z,24.60
2019-02-24T17:36:40.337Z,24.70
2019-02-24T17:39:45.065Z,24.90
2019-02-24T17:42:49.571Z,24.90
2019-02-24T17:45:53.987Z,25.00
2019-02-24T17:48:58.849Z,25.10
2019-02-24T17:52:07.370Z,25.10
2019-02-24T17:55:12.458Z,25.20
2019-02-24T17:58:17.212Z,25.20
2019-02-24T18:01:22.899Z,25.30
2019-02-24T18:04:27.692Z,25.30
2019-02-24T18:07:33.175Z,25.40
2019-02-24T18:10:38.186Z,25.40
2019-02-24T18:13:42.768Z,25.50
2019-02-24T18:16:48.119Z,25.50
2019-02-24T18:19:52.442Z,25.50
2019-02-24T18:22:58.340Z,25.60
2019-02-24T18:26:02.833Z,25.60
2019-02-24T18:29:08.679Z,25.60
2019-02-24T18:32:13.068Z,25.70
2019-02-24T18:35:17.683Z,25.70
2019-02-24T18:38:24.527Z,25.80
2019-02-24T18:41:29.280Z,25.90
2019-02-24T18:44:34.015Z,25.90
2019-02-24T18:47:38.405Z,25.90
2019-02-24T18:50:43.240Z,25.90
2019-02-24T18:53:48.072Z,26.00
2019-02-24T18:56:52.824Z,26.00
2019-02-24T18:59:57.205Z,26.00
2019-02-24T19:03:01.546Z,26.00
2019-02-24T19:06:06.321Z,26.00
2019-02-24T19:09:11.073Z,25.60
2019-02-24T19:12:15.710Z,25.80
2019-02-24T19:15:21.916Z,25.60
2019-02-24T19:18:26.208Z,25.60
2019-02-24T19:21:30.893Z,25.50
2019-02-24T19:24:37.279Z,25.40
2019-02-24T19:27:42.041Z,25.40
2019-02-24T19:30:46.565Z,25.20
2019-02-24T19:33:50.958Z,25.10
2019-02-24T19:36:55.324Z,25.00
2019-02-24T19:39:59.740Z,24.90
2019-02-24T19:43:05.608Z,24.70
2019-02-24T19:46:10.277Z,24.60
2019-02-24T19:49:14.575Z,24.50
2019-02-24T19:52:20.721Z,24.40
2019-02-24T19:55:25.033Z,24.30
2019-02-24T19:58:29.869Z,24.10
2019-02-24T20:01:34.220Z,24.10
2019-02-24T20:04:38.600Z,24.00
2019-02-24T20:07:43.700Z,23.90
2019-02-24T20:10:48.834Z,23.80
2019-02-24T20:13:53.271Z,23.70
2019-02-24T20:16:59.139Z,23.60
2019-02-24T20:20:03.578Z,23.50
2019-02-24T20:23:07.895Z,23.40
2019-02-24T20:26:14.325Z,23.40
2019-02-24T20:29:19.054Z,23.30
2019-02-24T20:32:23.699Z,23.20
2019-02-24T20:35:29.602Z,23.10
2019-02-24T20:38:34.010Z,23.00
2019-02-24T20:41:42.213Z,22.90
2019-02-24T20:44:48.935Z,22.80
2019-02-24T20:47:53.482Z,22.80
2019-02-24T20:51:00.144Z,22.70
2019-02-24T20:54:04.519Z,22.60
2019-02-24T20:57:09.710Z,22.60
2019-02-24T21:00:19.807Z,22.50
2019-02-24T21:03:24.185Z,22.40
2019-02-24T21:06:28.926Z,22.40
2019-02-24T21:09:33.344Z,22.30
2019-02-24T21:12:37.735Z,22.30
2019-02-24T21:15:42.056Z,22.30
2019-02-24T21:18:46.994Z,22.20
2019-02-24T21:21:51.450Z,22.10
2019-02-24T21:24:55.859Z,22.10
2019-02-24T21:28:00.200Z,22.10
2019-02-24T21:31:04.615Z,22.00
2019-02-24T21:34:08.952Z,21.90
2019-02-24T21:37:14.490Z,21.90
2019-02-24T21:40:19.159Z,21.90
2019-02-24T21:43:23.474Z,21.80
2019-02-24T21:46:28.141Z,21.70
2019-02-24T21:49:35.459Z,21.70
2019-02-24T21:52:40.156Z,21.60
2019-02-24T21:55:44.528Z,21.60
2019-02-24T21:58:48.855Z,21.60
2019-02-24T22:01:53.216Z,21.50
2019-02-24T22:04:57.956Z,21.50
2019-02-24T22:08:02.296Z,21.40
2019-02-24T22:11:07.378Z,21.40
2019-02-24T22:14:11.755Z,21.40
2019-02-24T22:17:16.076Z,21.30
2019-02-24T22:20:20.999Z,21.30
2019-02-24T22:23:25.793Z,21.20
2019-02-24T22:26:30.212Z,21.20
2019-02-24T22:29:35.224Z,21.20
2019-02-24T22:32:39.613Z,21.20
2019-02-24T22:35:43.933Z,21.10
2019-02-24T22:38:48.549Z,21.10
2019-02-24T22:41:53.222Z,21.00
2019-02-24T22:44:57.548Z,21.00
2019-02-24T22:48:03.115Z,21.00
2019-02-24T22:51:07.625Z,20.90
2019-02-24T22:54:11.912Z,20.90
2019-02-24T22:57:16.241Z,20.90
2019-02-24T23:01:01.781Z,20.90
2019-02-24T23:04:06.033Z,20.80
2019-02-24T23:07:10.649Z,20.80
2019-02-24T23:10:14.968Z,20.80
2019-02-24T23:13:19.259Z,20.70
2019-02-24T23:16:23.986Z,20.70
2019-02-24T23:19:28.315Z,20.60
2019-02-24T23:22:33.769Z,20.60
2019-02-24T23:25:38.109Z,20.60
2019-02-24T23:28:42.478Z,20.60
2019-02-24T23:31:46.849Z,20.60
2019-02-24T23:34:51.246Z,20.50
2019-02-24T23:37:55.565Z,20.50
2019-02-24T23:41:11.264Z,20.40
2019-02-24T23:44:15.792Z,20.40
2019-02-24T23:47:20.505Z,20.40
2019-02-24T23:50:28.260Z,20.40
2019-02-24T23:53:32.642Z,20.40
2019-02-24T23:56:38.513Z,20.30
2019-02-24T23:59:43.211Z,20.30
